PWSweather.com
Personal Weather Stations
Station Observations
COONRAPIDS
Minneapolis, MN 55433

Minneapolis, MN 55433

Lat: 45.187721, Lon: -93.36828

Elevation: 898

Station Type: Davis Vantage Pro 2

High Low Average
Temperature 18.4°F-7.6°C -3.5°F-19.7°C 8.6°F-13.0°C
Dew Point 9.3°F-12.6°C -9.7°F-23.2°C 1.3°F-17.1°C
Winds 3.5 mph 5.6 kmh Calm Calm Calm SECalm SE
Wind Gusts 5.8 mph9.3 kmh -- 2.0 mph3.2 kmh
Humidity 76% 64% 72%
Pressure 30.33 in1027.1 mb 29.99 in1015.6 mb -
Precipitation 0.00 in0.0 mm - -
Hour Temp Dew Point Humidity Winds Wind Gusts Pressure Precip Precip Rate Daily Precip Total
12:00 AM -4.4°F-20.2°C -10.9°F-23.8°C 73% Calm Calm -- 30.31 in1026.4 mb - 0.00 in0.0 mm 0.00 in0.0 mm
12:10 AM -4.4°F-20.2°C -10.9°F-23.8°C 73% Calm Calm -- 30.31 in1026.4 mb - 0.00 in0.0 mm 0.00 in0.0 mm
12:20 AM -4.3°F-20.2°C -10.8°F-23.8°C 73% Calm Calm -- 30.31 in1026.4 mb - 0.00 in0.0 mm 0.00 in0.0 mm
12:30 AM -4.1°F-20.1°C -10.3°F-23.5°C 74% Calm Calm -- 30.32 in1026.8 mb - 0.00 in0.0 mm 0.00 in0.0 mm
12:40 AM -3.9°F-19.9°C -10.1°F-23.4°C 74% Calm Calm -- 30.32 in1026.8 mb - 0.00 in0.0 mm 0.00 in0.0 mm
12:50 AM -3.7°F-19.8°C -9.9°F-23.3°C 74% Calm Calm -- 30.31 in1026.4 mb - 0.00 in0.0 mm 0.00 in0.0 mm
01:00 AM -3.5°F-19.7°C -9.7°F-23.2°C 74% Calm Calm -- 30.32 in1026.8 mb - 0.00 in0.0 mm 0.00 in0.0 mm
01:10 AM -3.2°F-19.6°C -9.4°F-23.0°C 74% Calm Calm -- 30.31 in1026.4 mb - 0.00 in0.0 mm 0.00 in0.0 mm
01:20 AM -3.0°F-19.4°C -9.3°F-22.9°C 74% Calm Calm 1.2 mph1.9 kmh 30.32 in1026.8 mb - 0.00 in0.0 mm 0.00 in0.0 mm
01:30 AM -2.8°F-19.3°C -9.0°F-22.8°C 74% Calm Calm -- 30.33 in1027.1 mb - 0.00 in0.0 mm 0.00 in0.0 mm
01:40 AM -2.5°F-19.2°C -8.7°F-22.6°C 74% Calm Calm -- 30.32 in1026.8 mb - 0.00 in0.0 mm 0.00 in0.0 mm
01:50 AM -2.3°F-19.1°C -8.6°F-22.6°C 74% Calm Calm -- 30.32 in1026.8 mb - 0.00 in0.0 mm 0.00 in0.0 mm
02:00 AM -2.2°F-19.0°C -8.7°F-22.6°C 73% 1.2 mph ESE1.9 kmh ESE 2.3 mph3.7 kmh 30.31 in1026.4 mb - 0.00 in0.0 mm 0.00 in0.0 mm
02:10 AM -2.1°F-18.9°C -8.6°F-22.6°C 73% Calm Calm 3.5 mph5.6 kmh 30.31 in1026.4 mb - 0.00 in0.0 mm 0.00 in0.0 mm
02:20 AM -2.0°F-18.9°C -8.5°F-22.5°C 73% Calm Calm -- 30.31 in1026.4 mb - 0.00 in0.0 mm 0.00 in0.0 mm
02:30 AM -1.9°F-18.8°C -8.2°F-22.3°C 74% Calm Calm -- 30.30 in1026.1 mb - 0.00 in0.0 mm 0.00 in0.0 mm
02:40 AM -1.8°F-18.8°C -8.1°F-22.3°C 74% Calm Calm 1.2 mph1.9 kmh 30.30 in1026.1 mb - 0.00 in0.0 mm 0.00 in0.0 mm
02:50 AM -1.8°F-18.8°C -8.0°F-22.2°C 74% Calm Calm -- 30.31 in1026.4 mb - 0.00 in0.0 mm 0.00 in0.0 mm
03:00 AM -1.7°F-18.7°C -8.0°F-22.2°C 74% Calm Calm -- 30.31 in1026.4 mb - 0.00 in0.0 mm 0.00 in0.0 mm
03:10 AM -1.6°F-18.7°C -7.9°F-22.2°C 74% Calm Calm 1.2 mph1.9 kmh 30.31 in1026.4 mb - 0.00 in0.0 mm 0.00 in0.0 mm
03:20 AM -1.5°F-18.6°C -8.1°F-22.3°C 73% Calm Calm -- 30.32 in1026.8 mb - 0.00 in0.0 mm 0.00 in0.0 mm
03:30 AM -1.3°F-18.5°C -7.6°F-22.0°C 74% Calm Calm -- 30.32 in1026.8 mb - 0.00 in0.0 mm 0.00 in0.0 mm
03:40 AM -1.3°F-18.5°C -7.6°F-22.0°C 74% Calm Calm -- 30.31 in1026.4 mb - 0.00 in0.0 mm 0.00 in0.0 mm
03:50 AM -1.2°F-18.4°C -7.5°F-21.9°C 74% Calm Calm -- 30.31 in1026.4 mb - 0.00 in0.0 mm 0.00 in0.0 mm
04:00 AM -1.2°F-18.4°C -7.5°F-21.9°C 74% Calm Calm -- 30.30 in1026.1 mb - 0.00 in0.0 mm 0.00 in0.0 mm
04:10 AM -1.2°F-18.4°C -7.5°F-21.9°C 74% Calm Calm -- 30.30 in1026.1 mb - 0.00 in0.0 mm 0.00 in0.0 mm
04:20 AM -1.0°F-18.3°C -7.3°F-21.8°C 74% 1.2 mph ESE1.9 kmh ESE 2.3 mph3.7 kmh 30.29 in1025.7 mb - 0.00 in0.0 mm 0.00 in0.0 mm
04:30 AM -1.0°F-18.3°C -7.3°F-21.8°C 74% Calm Calm 2.3 mph3.7 kmh 30.29 in1025.7 mb - 0.00 in0.0 mm 0.00 in0.0 mm
04:40 AM -0.9°F-18.3°C -7.2°F-21.8°C 74% Calm Calm 1.2 mph1.9 kmh 30.29 in1025.7 mb - 0.00 in0.0 mm 0.00 in0.0 mm
04:50 AM -0.8°F-18.2°C -7.1°F-21.7°C 74% Calm Calm 2.3 mph3.7 kmh 30.29 in1025.7 mb - 0.00 in0.0 mm 0.00 in0.0 mm
05:00 AM -0.8°F-18.2°C -7.1°F-21.7°C 74% Calm Calm -- 30.30 in1026.1 mb - 0.00 in0.0 mm 0.00 in0.0 mm
05:10 AM -0.6°F-18.1°C -6.9°F-21.6°C 74% Calm Calm -- 30.30 in1026.1 mb - 0.00 in0.0 mm 0.00 in0.0 mm
05:20 AM -0.4°F-18.0°C -6.7°F-21.5°C 74% Calm Calm -- 30.30 in1026.1 mb - 0.00 in0.0 mm 0.00 in0.0 mm
05:30 AM -0.3°F-17.9°C -6.6°F-21.4°C 74% Calm Calm -- 30.30 in1026.1 mb - 0.00 in0.0 mm 0.00 in0.0 mm
05:40 AM -0.1°F-17.8°C -6.4°F-21.3°C 74% Calm Calm -- 30.30 in1026.1 mb - 0.00 in0.0 mm 0.00 in0.0 mm
05:50 AM 0.0°F-17.8°C -6.3°F-21.3°C 74% Calm Calm -- 30.29 in1025.7 mb - 0.00 in0.0 mm 0.00 in0.0 mm
06:00 AM 0.1°F-17.7°C -5.9°F-21.1°C 75% Calm Calm -- 30.30 in1026.1 mb - 0.00 in0.0 mm 0.00 in0.0 mm
06:10 AM 0.3°F-17.6°C -5.8°F-21.0°C 75% Calm Calm -- 30.30 in1026.1 mb - 0.00 in0.0 mm 0.00 in0.0 mm
06:20 AM 0.5°F-17.5°C -5.6°F-20.9°C 75% Calm Calm -- 30.29 in1025.7 mb - 0.00 in0.0 mm 0.00 in0.0 mm
06:30 AM 0.7°F-17.4°C -5.4°F-20.8°C 75% Calm Calm -- 30.29 in1025.7 mb - 0.00 in0.0 mm 0.00 in0.0 mm
06:40 AM 0.9°F-17.3°C -5.2°F-20.7°C 75% Calm Calm -- 30.29 in1025.7 mb - 0.00 in0.0 mm 0.00 in0.0 mm
06:50 AM 1.0°F-17.2°C -5.1°F-20.6°C 75% Calm Calm -- 30.29 in1025.7 mb - 0.00 in0.0 mm 0.00 in0.0 mm
07:00 AM 0.9°F-17.3°C -5.2°F-20.7°C 75% Calm Calm 2.3 mph3.7 kmh 30.28 in1025.4 mb - 0.00 in0.0 mm 0.00 in0.0 mm
07:10 AM 1.1°F-17.2°C -5.0°F-20.6°C 75% Calm Calm 1.2 mph1.9 kmh 30.29 in1025.7 mb - 0.00 in0.0 mm 0.00 in0.0 mm
07:20 AM 1.2°F-17.1°C -4.9°F-20.5°C 75% 1.2 mph ESE1.9 kmh ESE 3.5 mph5.6 kmh 30.28 in1025.4 mb - 0.00 in0.0 mm 0.00 in0.0 mm
07:30 AM 1.3°F-17.1°C -4.8°F-20.4°C 75% Calm Calm -- 30.29 in1025.7 mb - 0.00 in0.0 mm 0.00 in0.0 mm
07:40 AM 1.4°F-17.0°C -4.7°F-20.4°C 75% Calm Calm -- 30.29 in1025.7 mb - 0.00 in0.0 mm 0.00 in0.0 mm
07:50 AM 1.5°F-16.9°C -4.6°F-20.3°C 75% Calm Calm 2.3 mph3.7 kmh 30.29 in1025.7 mb - 0.00 in0.0 mm 0.00 in0.0 mm
08:00 AM 1.7°F-16.8°C -4.4°F-20.2°C 75% Calm Calm -- 30.29 in1025.7 mb - 0.00 in0.0 mm 0.00 in0.0 mm
08:10 AM 1.9°F-16.7°C -4.2°F-20.1°C 75% Calm Calm 3.5 mph5.6 kmh 30.29 in1025.7 mb - 0.00 in0.0 mm 0.00 in0.0 mm
08:20 AM 2.0°F-16.7°C -4.1°F-20.1°C 75% Calm Calm -- 30.29 in1025.7 mb - 0.00 in0.0 mm 0.00 in0.0 mm
08:30 AM 2.1°F-16.6°C -4.0°F-20.0°C 75% Calm Calm -- 30.28 in1025.4 mb - 0.00 in0.0 mm 0.00 in0.0 mm
08:40 AM 2.3°F-16.5°C -3.8°F-19.9°C 75% 1.2 mph ESE1.9 kmh ESE 1.2 mph1.9 kmh 30.28 in1025.4 mb - 0.00 in0.0 mm 0.00 in0.0 mm
08:50 AM 2.5°F-16.4°C -3.6°F-19.8°C 75% 1.2 mph ESE1.9 kmh ESE 3.5 mph5.6 kmh 30.28 in1025.4 mb - 0.00 in0.0 mm 0.00 in0.0 mm
09:00 AM 2.7°F-16.3°C -3.4°F-19.7°C 75% Calm Calm -- 30.29 in1025.7 mb - 0.00 in0.0 mm 0.00 in0.0 mm
09:10 AM 3.0°F-16.1°C -3.2°F-19.6°C 75% Calm Calm 2.3 mph3.7 kmh 30.29 in1025.7 mb - 0.00 in0.0 mm 0.00 in0.0 mm
09:20 AM 3.3°F-15.9°C -2.8°F-19.3°C 75% Calm Calm 2.3 mph3.7 kmh 30.29 in1025.7 mb - 0.00 in0.0 mm 0.00 in0.0 mm
09:30 AM 3.6°F-15.8°C -2.6°F-19.2°C 75% Calm Calm -- 30.29 in1025.7 mb - 0.00 in0.0 mm 0.00 in0.0 mm
09:40 AM 4.0°F-15.6°C -2.2°F-19.0°C 75% Calm Calm -- 30.29 in1025.7 mb - 0.00 in0.0 mm 0.00 in0.0 mm
09:50 AM 4.4°F-15.3°C -1.8°F-18.8°C 75% Calm Calm 2.3 mph3.7 kmh 30.29 in1025.7 mb - 0.00 in0.0 mm 0.00 in0.0 mm
10:00 AM 4.7°F-15.2°C -1.8°F-18.8°C 74% 1.2 mph ESE1.9 kmh ESE 3.5 mph5.6 kmh 30.29 in1025.7 mb - 0.00 in0.0 mm 0.00 in0.0 mm
10:10 AM 5.0°F-15.0°C -1.5°F-18.6°C 74% Calm Calm -- 30.29 in1025.7 mb - 0.00 in0.0 mm 0.00 in0.0 mm
10:20 AM 5.3°F-14.8°C -1.2°F-18.4°C 74% Calm Calm -- 30.28 in1025.4 mb - 0.00 in0.0 mm 0.00 in0.0 mm
10:30 AM 5.6°F-14.7°C -1.2°F-18.4°C 73% Calm Calm -- 30.29 in1025.7 mb - 0.00 in0.0 mm 0.00 in0.0 mm
10:40 AM 6.0°F-14.4°C -0.5°F-18.1°C 74% Calm Calm -- 30.29 in1025.7 mb - 0.00 in0.0 mm 0.00 in0.0 mm
10:50 AM 6.5°F-14.2°C -0.3°F-17.9°C 73% Calm Calm 2.3 mph3.7 kmh 30.29 in1025.7 mb - 0.00 in0.0 mm 0.00 in0.0 mm
11:00 AM 7.1°F-13.8°C 0.2°F-17.7°C 73% 1.2 mph ESE1.9 kmh ESE 1.2 mph1.9 kmh 30.29 in1025.7 mb - 0.00 in0.0 mm 0.00 in0.0 mm
11:10 AM 7.5°F-13.6°C 0.4°F-17.6°C 72% Calm Calm 2.3 mph3.7 kmh 30.28 in1025.4 mb - 0.00 in0.0 mm 0.00 in0.0 mm
11:20 AM 8.0°F-13.3°C 0.5°F-17.5°C 71% Calm Calm -- 30.29 in1025.7 mb - 0.00 in0.0 mm 0.00 in0.0 mm
11:30 AM 8.5°F-13.1°C 1.0°F-17.2°C 71% Calm Calm 2.3 mph3.7 kmh 30.28 in1025.4 mb - 0.00 in0.0 mm 0.00 in0.0 mm
11:40 AM 8.7°F-12.9°C 1.2°F-17.1°C 71% Calm Calm 3.5 mph5.6 kmh 30.27 in1025.1 mb - 0.00 in0.0 mm 0.00 in0.0 mm
11:50 AM 9.1°F-12.7°C 1.6°F-16.9°C 71% 2.3 mph SE3.7 kmh SE 5.8 mph9.3 kmh 30.26 in1024.7 mb - 0.00 in0.0 mm 0.00 in0.0 mm
12:00 PM 9.5°F-12.5°C 1.7°F-16.8°C 70% 2.3 mph SSE3.7 kmh SSE 3.5 mph5.6 kmh 30.25 in1024.4 mb - 0.00 in0.0 mm 0.00 in0.0 mm
12:10 PM 9.8°F-12.3°C 2.0°F-16.7°C 70% 1.2 mph SSE1.9 kmh SSE 3.5 mph5.6 kmh 30.26 in1024.7 mb - 0.00 in0.0 mm 0.00 in0.0 mm
12:20 PM 10.3°F-12.1°C 2.1°F-16.6°C 69% 3.5 mph SE5.6 kmh SE 5.8 mph9.3 kmh 30.25 in1024.4 mb - 0.00 in0.0 mm 0.00 in0.0 mm
12:30 PM 10.6°F-11.9°C 2.4°F-16.4°C 69% Calm Calm -- 30.25 in1024.4 mb - 0.00 in0.0 mm 0.00 in0.0 mm
12:40 PM 11.4°F-11.4°C 3.2°F-16.0°C 69% Calm Calm 3.5 mph5.6 kmh 30.25 in1024.4 mb - 0.00 in0.0 mm 0.00 in0.0 mm
12:50 PM 12.1°F-11.1°C 3.6°F-15.8°C 68% 1.2 mph SE1.9 kmh SE 3.5 mph5.6 kmh 30.25 in1024.4 mb - 0.00 in0.0 mm 0.00 in0.0 mm
01:00 PM 12.9°F-10.6°C 4.3°F-15.4°C 68% 1.2 mph SE1.9 kmh SE 3.5 mph5.6 kmh 30.24 in1024.0 mb - 0.00 in0.0 mm 0.00 in0.0 mm
01:10 PM 13.1°F-10.5°C 4.2°F-15.4°C 67% Calm Calm 1.2 mph1.9 kmh 30.23 in1023.7 mb - 0.00 in0.0 mm 0.00 in0.0 mm
01:20 PM 13.4°F-10.3°C 4.1°F-15.5°C 66% 1.2 mph SE1.9 kmh SE 3.5 mph5.6 kmh 30.22 in1023.4 mb - 0.00 in0.0 mm 0.00 in0.0 mm
01:30 PM 13.8°F-10.1°C 4.5°F-15.3°C 66% 2.3 mph SE3.7 kmh SE 3.5 mph5.6 kmh 30.22 in1023.4 mb - 0.00 in0.0 mm 0.00 in0.0 mm
01:40 PM 14.2°F-9.9°C 4.9°F-15.1°C 66% 2.3 mph SE3.7 kmh SE 4.6 mph7.4 kmh 30.22 in1023.4 mb - 0.00 in0.0 mm 0.00 in0.0 mm
01:50 PM 14.5°F-9.7°C 5.2°F-14.9°C 66% 1.2 mph SE1.9 kmh SE 3.5 mph5.6 kmh 30.22 in1023.4 mb - 0.00 in0.0 mm 0.00 in0.0 mm
02:00 PM 14.9°F-9.5°C 5.6°F-14.7°C 66% 2.3 mph SE3.7 kmh SE 3.5 mph5.6 kmh 30.21 in1023.0 mb - 0.00 in0.0 mm 0.00 in0.0 mm
02:10 PM 14.9°F-9.5°C 5.6°F-14.7°C 66% 2.3 mph SE3.7 kmh SE 3.5 mph5.6 kmh 30.20 in1022.7 mb - 0.00 in0.0 mm 0.00 in0.0 mm
02:20 PM 15.6°F-9.1°C 6.3°F-14.3°C 66% 1.2 mph S1.9 kmh S 3.5 mph5.6 kmh 30.20 in1022.7 mb - 0.00 in0.0 mm 0.00 in0.0 mm
02:30 PM 15.9°F-8.9°C 6.2°F-14.3°C 65% 2.3 mph SE3.7 kmh SE 3.5 mph5.6 kmh 30.19 in1022.4 mb - 0.00 in0.0 mm 0.00 in0.0 mm
02:40 PM 16.1°F-8.8°C 6.4°F-14.2°C 65% 1.2 mph SSE1.9 kmh SSE 4.6 mph7.4 kmh 30.18 in1022.0 mb - 0.00 in0.0 mm 0.00 in0.0 mm
02:50 PM 16.8°F-8.4°C 7.1°F-13.8°C 65% 1.2 mph SE1.9 kmh SE 3.5 mph5.6 kmh 30.17 in1021.7 mb - 0.00 in0.0 mm 0.00 in0.0 mm
03:00 PM 17.0°F-8.3°C 7.3°F-13.7°C 65% 2.3 mph SSE3.7 kmh SSE 3.5 mph5.6 kmh 30.16 in1021.3 mb - 0.00 in0.0 mm 0.00 in0.0 mm
03:10 PM 17.2°F-8.2°C 7.1°F-13.8°C 64% 1.2 mph S1.9 kmh S 2.3 mph3.7 kmh 30.16 in1021.3 mb - 0.00 in0.0 mm 0.00 in0.0 mm
03:20 PM 17.3°F-8.2°C 7.2°F-13.8°C 64% Calm Calm -- 30.15 in1021.0 mb - 0.00 in0.0 mm 0.00 in0.0 mm
03:30 PM 17.6°F-8.0°C 8.1°F-13.3°C 66% 1.2 mph SE1.9 kmh SE 4.6 mph7.4 kmh 30.15 in1021.0 mb - 0.00 in0.0 mm 0.00 in0.0 mm
03:40 PM 17.7°F-7.9°C 8.3°F-13.2°C 66% Calm Calm -- 30.15 in1021.0 mb - 0.00 in0.0 mm 0.00 in0.0 mm
03:50 PM 17.9°F-7.8°C 8.1°F-13.3°C 65% 2.3 mph SSE3.7 kmh SSE 3.5 mph5.6 kmh 30.15 in1021.0 mb - 0.00 in0.0 mm 0.00 in0.0 mm
04:00 PM 17.9°F-7.8°C 8.1°F-13.3°C 65% 2.3 mph SE3.7 kmh SE 4.6 mph7.4 kmh 30.14 in1020.7 mb - 0.00 in0.0 mm 0.00 in0.0 mm
04:10 PM 18.2°F-7.7°C 8.4°F-13.1°C 65% 1.2 mph SSE1.9 kmh SSE 2.3 mph3.7 kmh 30.14 in1020.7 mb - 0.00 in0.0 mm 0.00 in0.0 mm
04:20 PM 18.4°F-7.6°C 8.6°F-13.0°C 65% Calm Calm -- 30.15 in1021.0 mb - 0.00 in0.0 mm 0.00 in0.0 mm
04:30 PM 18.1°F-7.7°C 8.3°F-13.2°C 65% Calm Calm -- 30.14 in1020.7 mb - 0.00 in0.0 mm 0.00 in0.0 mm
04:40 PM 17.8°F-7.9°C 8.4°F-13.1°C 66% 1.2 mph ESE1.9 kmh ESE 4.6 mph7.4 kmh 30.14 in1020.7 mb - 0.00 in0.0 mm 0.00 in0.0 mm
04:50 PM 17.9°F-7.8°C 8.4°F-13.1°C 66% Calm Calm -- 30.13 in1020.3 mb - 0.00 in0.0 mm 0.00 in0.0 mm
05:00 PM 18.1°F-7.7°C 8.6°F-13.0°C 66% Calm Calm -- 30.14 in1020.7 mb - 0.00 in0.0 mm 0.00 in0.0 mm
05:10 PM 18.2°F-7.7°C 8.7°F-12.9°C 66% Calm Calm -- 30.13 in1020.3 mb - 0.00 in0.0 mm 0.00 in0.0 mm
05:20 PM 18.4°F-7.6°C 9.2°F-12.7°C 67% Calm Calm 3.5 mph5.6 kmh 30.12 in1020.0 mb - 0.00 in0.0 mm 0.00 in0.0 mm
05:30 PM 18.4°F-7.6°C 9.3°F-12.6°C 67% Calm Calm -- 30.12 in1020.0 mb - 0.00 in0.0 mm 0.00 in0.0 mm
05:40 PM 18.1°F-7.7°C 9.3°F-12.6°C 68% Calm Calm -- 30.12 in1020.0 mb - 0.00 in0.0 mm 0.00 in0.0 mm
05:50 PM 17.8°F-7.9°C 9.3°F-12.6°C 69% Calm Calm 3.5 mph5.6 kmh 30.12 in1020.0 mb - 0.00 in0.0 mm 0.00 in0.0 mm
06:00 PM 17.3°F-8.2°C 9.2°F-12.7°C 70% Calm Calm 2.3 mph3.7 kmh 30.10 in1019.3 mb - 0.00 in0.0 mm 0.00 in0.0 mm
06:10 PM 16.9°F-8.4°C 9.1°F-12.7°C 71% Calm Calm 4.6 mph7.4 kmh 30.10 in1019.3 mb - 0.00 in0.0 mm 0.00 in0.0 mm
06:20 PM 16.5°F-8.6°C 9.0°F-12.8°C 72% 2.3 mph SSE3.7 kmh SSE 4.6 mph7.4 kmh 30.10 in1019.3 mb - 0.00 in0.0 mm 0.00 in0.0 mm
06:30 PM 16.3°F-8.7°C 9.1°F-12.7°C 73% 1.2 mph S1.9 kmh S 3.5 mph5.6 kmh 30.10 in1019.3 mb - 0.00 in0.0 mm 0.00 in0.0 mm
06:40 PM 16.0°F-8.9°C 8.8°F-12.9°C 73% 1.2 mph S1.9 kmh S 2.3 mph3.7 kmh 30.11 in1019.6 mb - 0.00 in0.0 mm 0.00 in0.0 mm
06:50 PM 15.7°F-9.1°C 8.6°F-13.0°C 73% Calm Calm -- 30.11 in1019.6 mb - 0.00 in0.0 mm 0.00 in0.0 mm
07:00 PM 15.4°F-9.2°C 8.3°F-13.2°C 73% 1.2 mph SSE1.9 kmh SSE 2.3 mph3.7 kmh 30.10 in1019.3 mb - 0.00 in0.0 mm 0.00 in0.0 mm
07:10 PM 15.2°F-9.3°C 7.8°F-13.4°C 72% 1.2 mph S1.9 kmh S 2.3 mph3.7 kmh 30.09 in1019.0 mb - 0.00 in0.0 mm 0.00 in0.0 mm
07:20 PM 15.0°F-9.4°C 7.6°F-13.6°C 72% 1.2 mph SE1.9 kmh SE 4.6 mph7.4 kmh 30.09 in1019.0 mb - 0.00 in0.0 mm 0.00 in0.0 mm
07:30 PM 14.6°F-9.7°C 7.2°F-13.8°C 72% 3.5 mph S5.6 kmh S 3.5 mph5.6 kmh 30.09 in1019.0 mb - 0.00 in0.0 mm 0.00 in0.0 mm
07:40 PM 14.4°F-9.8°C 7.0°F-13.9°C 72% Calm Calm 3.5 mph5.6 kmh 30.09 in1019.0 mb - 0.00 in0.0 mm 0.00 in0.0 mm
07:50 PM 14.2°F-9.9°C 6.8°F-14.0°C 72% 1.2 mph S1.9 kmh S 3.5 mph5.6 kmh 30.09 in1019.0 mb - 0.00 in0.0 mm 0.00 in0.0 mm
08:00 PM 14.1°F-9.9°C 6.7°F-14.1°C 72% Calm Calm 3.5 mph5.6 kmh 30.08 in1018.6 mb - 0.00 in0.0 mm 0.00 in0.0 mm
08:10 PM 14.1°F-9.9°C 6.7°F-14.1°C 72% Calm Calm -- 30.08 in1018.6 mb - 0.00 in0.0 mm 0.00 in0.0 mm
08:20 PM 13.9°F-10.1°C 6.5°F-14.2°C 72% Calm Calm -- 30.08 in1018.6 mb - 0.00 in0.0 mm 0.00 in0.0 mm
08:30 PM 14.0°F-10.0°C 6.9°F-13.9°C 73% Calm Calm 1.2 mph1.9 kmh 30.07 in1018.3 mb - 0.00 in0.0 mm 0.00 in0.0 mm
08:40 PM 14.0°F-10.0°C 6.7°F-14.1°C 72% 2.3 mph S3.7 kmh S 3.5 mph5.6 kmh 30.07 in1018.3 mb - 0.00 in0.0 mm 0.00 in0.0 mm
08:50 PM 14.0°F-10.0°C 6.7°F-14.1°C 72% Calm Calm 3.5 mph5.6 kmh 30.07 in1018.3 mb - 0.00 in0.0 mm 0.00 in0.0 mm
09:00 PM 13.9°F-10.1°C 6.5°F-14.2°C 72% Calm Calm -- 30.07 in1018.3 mb - 0.00 in0.0 mm 0.00 in0.0 mm
09:10 PM 13.8°F-10.1°C 6.4°F-14.2°C 72% Calm Calm 2.3 mph3.7 kmh 30.07 in1018.3 mb - 0.00 in0.0 mm 0.00 in0.0 mm
09:20 PM 13.6°F-10.2°C 6.5°F-14.2°C 73% Calm Calm -- 30.07 in1018.3 mb - 0.00 in0.0 mm 0.00 in0.0 mm
09:30 PM 13.5°F-10.3°C 6.5°F-14.2°C 73% Calm Calm -- 30.07 in1018.3 mb - 0.00 in0.0 mm 0.00 in0.0 mm
09:40 PM 13.3°F-10.4°C 6.3°F-14.3°C 73% Calm Calm -- 30.06 in1017.9 mb - 0.00 in0.0 mm 0.00 in0.0 mm
09:50 PM 13.2°F-10.4°C 6.2°F-14.3°C 73% Calm Calm -- 30.06 in1017.9 mb - 0.00 in0.0 mm 0.00 in0.0 mm
10:00 PM 13.1°F-10.5°C 6.1°F-14.4°C 73% Calm Calm -- 30.05 in1017.6 mb - 0.00 in0.0 mm 0.00 in0.0 mm
10:10 PM 13.0°F-10.6°C 6.3°F-14.3°C 74% Calm Calm 2.3 mph3.7 kmh 30.05 in1017.6 mb - 0.00 in0.0 mm 0.00 in0.0 mm
10:20 PM 13.0°F-10.6°C 6.3°F-14.3°C 74% Calm Calm -- 30.04 in1017.3 mb - 0.00 in0.0 mm 0.00 in0.0 mm
10:30 PM 13.0°F-10.6°C 6.3°F-14.3°C 74% Calm Calm 2.3 mph3.7 kmh 30.03 in1016.9 mb - 0.00 in0.0 mm 0.00 in0.0 mm
10:40 PM 13.0°F-10.6°C 6.3°F-14.3°C 74% 2.3 mph S3.7 kmh S 4.6 mph7.4 kmh 30.03 in1016.9 mb - 0.00 in0.0 mm 0.00 in0.0 mm
10:50 PM 13.1°F-10.5°C 6.4°F-14.2°C 74% Calm Calm -- 30.02 in1016.6 mb - 0.00 in0.0 mm 0.00 in0.0 mm
11:00 PM 13.1°F-10.5°C 6.4°F-14.2°C 74% Calm Calm 4.6 mph7.4 kmh 30.02 in1016.6 mb - 0.00 in0.0 mm 0.00 in0.0 mm
11:10 PM 13.1°F-10.5°C 6.3°F-14.3°C 74% Calm Calm -- 30.02 in1016.6 mb - 0.00 in0.0 mm 0.00 in0.0 mm
11:20 PM 13.0°F-10.6°C 6.3°F-14.3°C 74% Calm Calm -- 30.02 in1016.6 mb - 0.00 in0.0 mm 0.00 in0.0 mm
11:30 PM 13.1°F-10.5°C 6.7°F-14.1°C 75% Calm Calm -- 30.01 in1016.3 mb - 0.00 in0.0 mm 0.00 in0.0 mm
11:40 PM 13.2°F-10.4°C 6.8°F-14.0°C 75% Calm Calm -- 30.00 in1015.9 mb - 0.00 in0.0 mm 0.00 in0.0 mm
11:50 PM 13.4°F-10.3°C 7.0°F-13.9°C 75% Calm Calm 2.3 mph3.7 kmh 30.00 in1015.9 mb - 0.00 in0.0 mm 0.00 in0.0 mm